Time,TemperatureF,DewpointF,PressureIn,WindDirection,WindDirectionDegrees,WindSpeedMPH,WindSpeedGustMPH,Humidity,HourlyPrecipIn,Conditions,Clouds,dailyrainin,SoftwareType,DateUTC
2015-01-26 00:04:00,41.0,22.3,29.62,SSW,202,0.0,0.0,47,0.00,,---,0.00,VWS V15.00,2015-01-26 05:04:00,
2015-01-26 00:09:00,40.8,23.1,29.62,SSW,202,0.0,2.2,49,0.00,,---,0.00,VWS V15.00,2015-01-26 05:09:00,
2015-01-26 00:14:00,41.0,22.8,29.62,SSW,202,2.7,2.7,48,0.00,,---,0.00,VWS V15.00,2015-01-26 05:14:00,
2015-01-26 00:19:00,41.0,22.8,29.62,SSW,202,2.2,2.2,48,0.00,,---,0.00,VWS V15.00,2015-01-26 05:19:00,
2015-01-26 00:24:00,41.2,22.5,29.62,SSW,202,0.0,0.0,47,0.00,,---,0.00,VWS V15.00,2015-01-26 05:24:00,
2015-01-26 00:29:00,40.1,22.5,29.62,SSW,202,0.0,0.0,49,0.00,,---,0.00,VWS V15.00,2015-01-26 05:29:00,
2015-01-26 00:34:00,39.6,22.0,29.62,SSW,202,0.0,0.0,49,0.00,,---,0.00,VWS V15.00,2015-01-26 05:34:00,
2015-01-26 00:39:00,38.8,21.8,29.62,SSW,202,0.0,0.0,50,0.00,,---,0.00,VWS V15.00,2015-01-26 05:39:00,
2015-01-26 00:44:00,38.3,22.2,29.62,SSW,202,0.0,0.0,52,0.00,,---,0.00,VWS V15.00,2015-01-26 05:44:00,
2015-01-26 00:49:00,37.6,22.5,29.62,SSW,202,0.0,0.0,54,0.00,,---,0.00,VWS V15.00,2015-01-26 05:49:00,
2015-01-26 00:54:00,37.0,22.8,29.62,SSW,202,0.0,0.0,56,0.00,,---,0.00,VWS V15.00,2015-01-26 05:54:00,
2015-01-26 00:59:00,36.7,23.7,29.62,SSW,202,0.0,0.0,59,0.00,,---,0.00,VWS V15.00,2015-01-26 05:59:00,
2015-01-26 01:04:00,36.5,24.3,29.62,SSW,202,0.0,0.0,61,0.00,,---,0.00,VWS V15.00,2015-01-26 06:04:00,
2015-01-26 01:09:00,36.1,25.5,29.62,SSW,202,0.0,0.0,65,0.00,,---,0.00,VWS V15.00,2015-01-26 06:09:00,
2015-01-26 01:14:00,35.8,26.3,29.62,SSW,202,0.0,0.0,68,0.00,,---,0.00,VWS V15.00,2015-01-26 06:14:00,
2015-01-26 01:19:00,35.4,27.0,29.59,SSW,202,0.0,0.0,71,0.00,,---,0.00,VWS V15.00,2015-01-26 06:19:00,
2015-01-26 01:24:00,35.4,28.0,29.59,SSW,202,0.0,2.2,74,0.00,,---,0.00,VWS V15.00,2015-01-26 06:24:00,
2015-01-26 01:29:00,35.6,28.5,29.59,SSW,202,0.0,0.0,75,0.00,,---,0.00,VWS V15.00,2015-01-26 06:29:00,
2015-01-26 01:34:00,35.4,28.6,29.59,SSW,202,0.0,0.0,76,0.00,,---,0.00,VWS V15.00,2015-01-26 06:34:00,
2015-01-26 01:39:00,35.1,28.6,29.59,SSW,202,0.0,0.0,77,0.00,,---,0.00,VWS V15.00,2015-01-26 06:39:00,
2015-01-26 01:44:00,34.7,28.2,29.59,SSW,202,0.0,0.0,77,0.00,,---,0.00,VWS V15.00,2015-01-26 06:44:00,
2015-01-26 01:49:00,34.3,28.2,29.59,SSW,202,0.0,0.0,78,0.00,,---,0.00,VWS V15.00,2015-01-26 06:49:00,
2015-01-26 01:54:00,34.2,28.3,29.59,SW,225,0.0,0.0,79,0.00,,---,0.00,VWS V15.00,2015-01-26 06:54:00,
2015-01-26 01:59:00,34.0,28.5,29.59,SW,225,0.0,0.0,80,0.00,,---,0.00,VWS V15.00,2015-01-26 06:59:00,
2015-01-26 02:04:00,33.6,28.7,29.59,SW,225,0.0,0.0,82,0.00,,---,0.00,VWS V15.00,2015-01-26 07:04:00,
2015-01-26 02:09:00,33.6,29.3,29.59,SW,225,0.0,0.0,84,0.00,,---,0.00,VWS V15.00,2015-01-26 07:09:00,
2015-01-26 02:14:00,33.4,29.4,29.59,SW,225,0.0,0.0,85,0.00,,---,0.00,VWS V15.00,2015-01-26 07:14:00,
2015-01-26 02:19:00,33.6,29.9,29.59,SW,225,0.0,0.0,86,0.00,,---,0.00,VWS V15.00,2015-01-26 07:19:00,
2015-01-26 02:24:00,33.6,30.2,29.59,SW,225,0.0,0.0,87,0.00,,---,0.00,VWS V15.00,2015-01-26 07:24:00,
2015-01-26 02:29:00,33.6,30.5,29.59,SW,225,0.0,0.0,88,0.00,,---,0.00,VWS V15.00,2015-01-26 07:29:00,
2015-01-26 02:34:00,33.3,30.1,29.59,SW,225,2.7,2.7,88,0.00,,---,0.00,VWS V15.00,2015-01-26 07:34:00,
2015-01-26 02:39:00,33.4,30.5,29.59,SW,225,0.0,0.0,89,0.00,,---,0.00,VWS V15.00,2015-01-26 07:39:00,
2015-01-26 02:44:00,33.4,30.5,29.59,SW,225,0.0,0.0,89,0.00,,---,0.00,VWS V15.00,2015-01-26 07:44:00,
2015-01-26 02:49:00,33.3,30.4,29.59,SW,225,0.0,0.0,89,0.00,,---,0.00,VWS V15.00,2015-01-26 07:49:00,
2015-01-26 02:54:00,33.6,31.0,29.59,SSW,202,0.0,0.0,90,0.00,,---,0.00,VWS V15.00,2015-01-26 07:54:00,
2015-01-26 02:59:00,33.4,30.8,29.59,SSW,202,0.0,0.0,90,0.00,,---,0.00,VWS V15.00,2015-01-26 07:59:00,
2015-01-26 03:04:00,33.3,30.6,29.59,SSW,202,0.0,0.0,90,0.00,,---,0.00,VWS V15.00,2015-01-26 08:04:00,
2015-01-26 03:09:00,33.1,30.5,29.59,SSW,202,0.0,0.0,90,0.00,,---,0.00,VWS V15.00,2015-01-26 08:09:00,
2015-01-26 03:14:00,33.1,30.5,29.56,SSW,202,0.0,0.0,90,0.00,,---,0.00,VWS V15.00,2015-01-26 08:14:00,
2015-01-26 03:19:00,33.1,30.5,29.56,SSW,202,0.0,0.0,90,0.00,,---,0.00,VWS V15.00,2015-01-26 08:19:00,
2015-01-26 03:24:00,32.9,30.6,29.56,SSW,202,0.0,0.0,91,0.00,,---,0.00,VWS V15.00,2015-01-26 08:24:00,
2015-01-26 03:29:00,32.9,30.6,29.56,SSW,202,0.0,0.0,91,0.00,,---,0.00,VWS V15.00,2015-01-26 08:29:00,
2015-01-26 03:34:00,32.7,30.7,29.56,SSW,202,0.0,0.0,92,0.00,,---,0.00,VWS V15.00,2015-01-26 08:34:00,
2015-01-26 03:39:00,32.7,30.7,29.56,SSW,202,0.0,0.0,92,0.00,,---,0.00,VWS V15.00,2015-01-26 08:39:00,
2015-01-26 03:44:00,32.7,30.7,29.56,SSW,202,0.0,0.0,92,0.00,,---,0.00,VWS V15.00,2015-01-26 08:44:00,
2015-01-26 03:49:00,32.7,30.7,29.56,SSW,202,0.0,0.0,92,0.00,,---,0.00,VWS V15.00,2015-01-26 08:49:00,
2015-01-26 03:54:00,32.5,30.7,29.56,SSW,202,0.0,0.0,93,0.00,,---,0.00,VWS V15.00,2015-01-26 08:54:00,
2015-01-26 03:59:00,32.5,30.7,29.56,SSW,202,0.0,0.0,93,0.00,,---,0.00,VWS V15.00,2015-01-26 08:59:00,
2015-01-26 04:04:00,32.5,30.7,29.56,SSW,202,0.0,0.0,93,0.00,,---,0.00,VWS V15.00,2015-01-26 09:04:00,
2015-01-26 04:09:00,32.5,31.0,29.56,SSW,202,0.0,0.0,94,0.00,,---,0.00,VWS V15.00,2015-01-26 09:09:00,
2015-01-26 04:14:00,32.4,30.8,29.56,SSW,202,0.0,0.0,94,0.00,,---,0.00,VWS V15.00,2015-01-26 09:14:00,
2015-01-26 04:19:00,32.2,30.6,29.56,SSW,202,0.0,0.0,94,0.00,,---,0.00,VWS V15.00,2015-01-26 09:19:00,
2015-01-26 04:24:00,31.8,30.3,29.56,SSW,202,0.0,0.0,94,0.00,,---,0.00,VWS V15.00,2015-01-26 09:24:00,
2015-01-26 04:29:00,31.5,29.9,29.56,SSW,202,0.0,0.0,94,0.00,,---,0.00,VWS V15.00,2015-01-26 09:29:00,
2015-01-26 04:34:00,31.6,30.1,29.53,SSW,202,0.0,0.0,94,0.00,,---,0.00,VWS V15.00,2015-01-26 09:34:00,
2015-01-26 04:39:00,31.8,30.5,29.53,SW,225,0.0,0.0,95,0.00,,---,0.00,VWS V15.00,2015-01-26 09:39:00,
2015-01-26 04:44:00,31.5,30.2,29.53,SW,225,0.0,0.0,95,0.00,,---,0.00,VWS V15.00,2015-01-26 09:44:00,
2015-01-26 04:49:00,31.5,30.2,29.56,SW,225,0.0,0.0,95,0.00,,---,0.00,VWS V15.00,2015-01-26 09:49:00,
2015-01-26 04:54:00,31.3,30.0,29.56,SW,225,0.0,0.0,95,0.00,,---,0.00,VWS V15.00,2015-01-26 09:54:00,
2015-01-26 04:59:00,31.1,29.8,29.56,SW,225,0.0,0.0,95,0.00,,---,0.00,VWS V15.00,2015-01-26 09:59:00,
2015-01-26 05:04:00,31.1,30.1,29.56,SW,225,0.0,0.0,96,0.00,,---,0.00,VWS V15.00,2015-01-26 10:04:00,
2015-01-26 05:09:00,30.9,29.9,29.56,SW,225,0.0,0.0,96,0.00,,---,0.00,VWS V15.00,2015-01-26 10:09:00,
2015-01-26 05:14:00,30.7,29.7,29.56,SW,225,0.0,0.0,96,0.00,,---,0.00,VWS V15.00,2015-01-26 10:14:00,
2015-01-26 05:19:00,31.1,30.1,29.56,SW,225,0.0,0.0,96,0.00,,---,0.00,VWS V15.00,2015-01-26 10:19:00,
2015-01-26 05:24:00,31.3,30.3,29.56,SW,225,0.0,0.0,96,0.00,,---,0.00,VWS V15.00,2015-01-26 10:24:00,
2015-01-26 05:29:00,31.3,30.5,29.56,SW,225,0.0,0.0,97,0.00,,---,0.00,VWS V15.00,2015-01-26 10:29:00,
2015-01-26 05:34:00,31.6,30.9,29.56,SW,225,0.0,0.0,97,0.00,,---,0.00,VWS V15.00,2015-01-26 10:34:00,
2015-01-26 05:39:00,31.6,30.9,29.56,SW,225,0.0,0.0,97,0.00,,---,0.00,VWS V15.00,2015-01-26 10:39:00,
2015-01-26 05:44:00,32.0,31.2,29.56,SW,225,0.0,0.0,97,0.00,,---,0.00,VWS V15.00,2015-01-26 10:44:00,
2015-01-26 05:49:00,32.2,31.4,29.53,SW,225,0.0,0.0,97,0.00,,---,0.00,VWS V15.00,2015-01-26 10:49:00,
2015-01-26 05:54:00,32.5,31.8,29.53,SW,225,0.0,0.0,97,0.00,,---,0.00,VWS V15.00,2015-01-26 10:54:00,
2015-01-26 05:59:00,32.7,32.0,29.53,SW,225,0.0,0.0,97,0.00,,---,0.00,VWS V15.00,2015-01-26 10:59:00,
2015-01-26 06:04:00,32.9,32.1,29.56,SW,225,0.0,0.0,97,0.00,,---,0.00,VWS V15.00,2015-01-26 11:04:00,